COMO2: Grand River, Commerce, OK

                                SHEF ID:       COMO2     Neosho River nr Commerce, OK
STATION TYPE:
Regulating: Stage = 15.00, Flow = 21598

PRECIP STAGE STAGE(2) RIV-FLOW BAT-LOAD
in ft ft cfs volt
Ccp-Rev Ccp-Rev Ccp-Rev Ccp-Rev Ccp-Rev
(America/Chicago)
05/03 00:00 0.00 6.97 ---- 7916 12.37
05/03 01:00 0.00 6.96 ---- 7900 12.36
05/03 02:00 0.00 6.96 ---- 7900 12.34
05/03 03:00 0.00 6.95 ---- 7884 12.31
05/03 04:00 0.00 6.94 ---- 7868 12.28
05/03 05:00 0.00 6.93 ---- 7852 12.26
05/03 06:00 0.00 6.91 ---- 7820 12.24
05/03 07:00 0.00 6.90 ---- 7804 12.21
05/03 08:00 0.00 6.87 ---- 7756 12.77
05/03 09:00 0.00 6.86 ---- 7740 13.24
05/03 10:00 0.00 6.81 ---- 7661 13.22
05/03 11:00 0.00 6.77 ---- 7597 13.02
05/03 12:00 0.00 6.73 ---- 7533 12.93
05/03 13:00 0.00 6.71 ---- 7502 12.87
05/03 14:00 0.00 6.63 ---- 7374 12.86
05/03 15:00 0.00 6.59 ---- 7310 12.80
05/03 16:00 0.00 6.54 ---- 7231 12.67
05/03 17:00 0.00 6.49 ---- 7151 12.57
05/03 18:00 0.00 6.43 ---- 7056 12.52
05/03 19:00 0.00 6.38 ---- 6976 12.60
05/03 20:00 0.00 6.32 ---- 6880 12.50
05/03 21:00 0.00 6.27 ---- 6801 12.40
05/03 22:00 0.00 6.21 ---- 6705 12.38
05/03 23:00 0.00 6.15 ---- 6610 12.37
Data processed at Mon 04May2026 04:36 GMT

NOTICE: If you are parsing this page

Please convert to using our Data API. Starting early 2026 we will be migrating to: https://water.usace.army.mil with modern pages rendered in JavaScript. When this migration completes you will no longer be able to scrape this page! CWMSDataAPI (CDA)

Timeseries IDs (TSIDs)

TSIDs used from left to right in the data table
COMM.Precip-Inc.Total.1Hour.1Hour.Ccp-Rev
COMM.Stage.Inst.1Hour.0.Ccp-Rev
COMM.Stage-Alt.Inst.1Hour.0.Ccp-Rev
COMM.Flow.Inst.1Hour.0.Ccp-Rev
COMM.Volt-Battery Load.Inst.1Hour.0.Ccp-Rev

                            

All information presented herein is the property of the government of the United States of America and may be revised or deleted at any time without prior notice. Dissemination of this information without the expressed written consent of the Public Affairs Office, Tulsa District U.S. Army Corps of Engineers is strictly prohibited. These data are gathered electronically and, as presented, have NOT undergone any form of quality control. These data are NOT guaranteed to be valid or correct.